UKLL/LWO METAR and TAF weather

Enter ICAO airport designator
Station Type Date Time Source
UKLL METAR 2022/01/18 07:00 UTC NOAA

UKLL 180700Z 29006MPS 9999 -SHSN SCT024CB BKN024 M02/M05 Q1021 NOSIG


Station Type Date Time Source
UKLL Decoded METAR 2022/01/18 07:00 UTC NOAA

L'Viv, Ukraine (UKLL) 49-49N 023-57E 323M
Jan 18, 2022 - 02:00 AM EST / 2022.01.18 0700 UTC
Wind: from the WNW (290 degrees) at 13 MPH (12 KT):0
Visibility: greater than 7 mile(s):0
Sky conditions: mostly cloudy
Weather: light snow showers; Cumulonimbus clouds observed
Temperature: 28 F (-2 C)
Windchill: 17 F (-8 C):1
Dew Point: 23 F (-5 C)
Relative Humidity: 79%
Pressure (altimeter): 30.15 in. Hg (1021 hPa)
ob: UKLL 180700Z 29006MPS 9999 -SHSN SCT024CB BKN024 M02/M05 Q1021 NOSIG
cycle: 7

Station Type Date Time Source
UKLL TAF 2022/01/18 06:18 UTC NOAA

TAF UKLL 180503Z 1806/1906 29006MPS 5000 BR BKN012 TXM00/1813Z TNM04/1903Z
TEMPO 1806/1815 32009G14MPS 2100 -SHSN SCT004 BKN007 BKN015CB
TEMPO 1815/1906 33005G11MPS 3000 -SHSN SCT005 BKN017CB

Example: see airport list